sensor_id;sensor_type;location;lat;lon;timestamp;temperature;humidity
5222;DHT22;2630;52.036;8.514;2023-02-03T00:01:59;8.00;99.90
5222;DHT22;2630;52.036;8.514;2023-02-03T00:06:51;8.10;99.90
5222;DHT22;2630;52.036;8.514;2023-02-03T00:09:17;8.10;99.90
5222;DHT22;2630;52.036;8.514;2023-02-03T00:16:34;8.10;99.90
5222;DHT22;2630;52.036;8.514;2023-02-03T00:31:19;8.10;99.90
5222;DHT22;2630;52.036;8.514;2023-02-03T00:38:37;8.20;99.90
5222;DHT22;2630;52.036;8.514;2023-02-03T00:43:29;8.10;99.90
5222;DHT22;2630;52.036;8.514;2023-02-03T00:45:54;8.10;99.90
5222;DHT22;2630;52.036;8.514;2023-02-03T00:48:20;8.10;99.90
5222;DHT22;2630;52.036;8.514;2023-02-03T00:50:47;8.10;99.90
5222;DHT22;2630;52.036;8.514;2023-02-03T00:53:12;8.10;99.90
5222;DHT22;2630;52.036;8.514;2023-02-03T00:55:38;8.20;99.90
5222;DHT22;2630;52.036;8.514;2023-02-03T00:58:04;8.10;99.90
5222;DHT22;2630;52.036;8.514;2023-02-03T01:00:29;8.20;99.90
5222;DHT22;2630;52.036;8.514;2023-02-03T01:02:55;8.10;99.90
5222;DHT22;2630;52.036;8.514;2023-02-03T01:07:46;8.10;99.90
5222;DHT22;2630;52.036;8.514;2023-02-03T01:10:12;8.10;99.90
5222;DHT22;2630;52.036;8.514;2023-02-03T01:15:05;8.10;99.90
5222;DHT22;2630;52.036;8.514;2023-02-03T01:17:31;8.10;99.90
5222;DHT22;2630;52.036;8.514;2023-02-03T01:19:57;8.10;99.90
5222;DHT22;2630;52.036;8.514;2023-02-03T01:24:49;8.10;99.90
5222;DHT22;2630;52.036;8.514;2023-02-03T01:27:14;8.20;99.90
5222;DHT22;2630;52.036;8.514;2023-02-03T01:29:40;8.20;99.90
5222;DHT22;2630;52.036;8.514;2023-02-03T01:32:05;8.10;99.90
5222;DHT22;2630;52.036;8.514;2023-02-03T01:34:31;8.10;99.90
5222;DHT22;2630;52.036;8.514;2023-02-03T01:39:22;8.10;99.90
5222;DHT22;2630;52.036;8.514;2023-02-03T01:41:50;8.10;99.90
5222;DHT22;2630;52.036;8.514;2023-02-03T01:44:46;8.20;99.90
5222;DHT22;2630;52.036;8.514;2023-02-03T01:47:26;8.20;99.90
5222;DHT22;2630;52.036;8.514;2023-02-03T01:52:41;8.10;99.90
5222;DHT22;2630;52.036;8.514;2023-02-03T01:57:39;8.10;99.90
5222;DHT22;2630;52.036;8.514;2023-02-03T02:00:08;8.20;99.90
5222;DHT22;2630;52.036;8.514;2023-02-03T02:02:34;8.20;99.90
5222;DHT22;2630;52.036;8.514;2023-02-03T02:05:34;8.20;99.90
5222;DHT22;2630;52.036;8.514;2023-02-03T02:08:01;8.30;99.90
5222;DHT22;2630;52.036;8.514;2023-02-03T02:10:28;8.20;99.90
5222;DHT22;2630;52.036;8.514;2023-02-03T02:12:56;8.20;99.90
5222;DHT22;2630;52.036;8.514;2023-02-03T02:15:33;8.20;99.90
5222;DHT22;2630;52.036;8.514;2023-02-03T02:31:42;8.20;99.90
5222;DHT22;2630;52.036;8.514;2023-02-03T02:37:12;8.30;99.90
5222;DHT22;2630;52.036;8.514;2023-02-03T02:42:31;8.30;99.90
5222;DHT22;2630;52.036;8.514;2023-02-03T02:47:39;8.30;99.90
5222;DHT22;2630;52.036;8.514;2023-02-03T02:50:17;8.20;99.90
5222;DHT22;2630;52.036;8.514;2023-02-03T02:52:46;8.20;99.90
5222;DHT22;2630;52.036;8.514;2023-02-03T02:55:19;8.20;99.90
5222;DHT22;2630;52.036;8.514;2023-02-03T02:57:50;8.20;99.90
5222;DHT22;2630;52.036;8.514;2023-02-03T03:00:16;8.20;99.90
5222;DHT22;2630;52.036;8.514;2023-02-03T03:02:42;8.20;99.90
5222;DHT22;2630;52.036;8.514;2023-02-03T03:05:09;8.20;99.90
5222;DHT22;2630;52.036;8.514;2023-02-03T03:07:42;8.20;99.90
5222;DHT22;2630;52.036;8.514;2023-02-03T03:10:12;8.20;99.90
5222;DHT22;2630;52.036;8.514;2023-02-03T03:15:13;8.20;99.90
5222;DHT22;2630;52.036;8.514;2023-02-03T03:17:59;8.30;99.90
5222;DHT22;2630;52.036;8.514;2023-02-03T03:20:25;8.30;99.90
5222;DHT22;2630;52.036;8.514;2023-02-03T03:23:28;8.30;99.90
5222;DHT22;2630;52.036;8.514;2023-02-03T03:26:01;8.40;99.90
5222;DHT22;2630;52.036;8.514;2023-02-03T03:28:34;8.30;99.90
5222;DHT22;2630;52.036;8.514;2023-02-03T03:31:01;8.30;99.90
5222;DHT22;2630;52.036;8.514;2023-02-03T03:36:25;8.40;99.90
5222;DHT22;2630;52.036;8.514;2023-02-03T03:39:28;8.30;99.90
5222;DHT22;2630;52.036;8.514;2023-02-03T03:42:05;8.40;99.90
5222;DHT22;2630;52.036;8.514;2023-02-03T03:44:41;8.40;99.90
5222;DHT22;2630;52.036;8.514;2023-02-03T03:47:18;8.30;99.90
5222;DHT22;2630;52.036;8.514;2023-02-03T03:49:47;8.30;99.90
5222;DHT22;2630;52.036;8.514;2023-02-03T03:52:20;8.30;99.90
5222;DHT22;2630;52.036;8.514;2023-02-03T03:54:48;8.30;99.90
5222;DHT22;2630;52.036;8.514;2023-02-03T03:57:20;8.40;99.90
5222;DHT22;2630;52.036;8.514;2023-02-03T04:02:16;8.40;99.90
5222;DHT22;2630;52.036;8.514;2023-02-03T04:04:43;8.40;99.90
5222;DHT22;2630;52.036;8.514;2023-02-03T04:07:12;8.40;99.90
5222;DHT22;2630;52.036;8.514;2023-02-03T04:09:38;8.40;99.90
5222;DHT22;2630;52.036;8.514;2023-02-03T04:14:35;8.40;99.90
5222;DHT22;2630;52.036;8.514;2023-02-03T04:19:30;8.30;99.90
5222;DHT22;2630;52.036;8.514;2023-02-03T04:21:56;8.30;99.90
5222;DHT22;2630;52.036;8.514;2023-02-03T04:24:21;8.40;99.90
5222;DHT22;2630;52.036;8.514;2023-02-03T04:26:47;8.40;99.90
5222;DHT22;2630;52.036;8.514;2023-02-03T04:31:39;8.40;99.90
5222;DHT22;2630;52.036;8.514;2023-02-03T04:34:05;8.30;99.90
5222;DHT22;2630;52.036;8.514;2023-02-03T04:38:56;8.40;99.90
5222;DHT22;2630;52.036;8.514;2023-02-03T04:46:14;8.30;99.90
5222;DHT22;2630;52.036;8.514;2023-02-03T04:48:39;8.30;99.90
5222;DHT22;2630;52.036;8.514;2023-02-03T04:51:06;8.30;99.90
5222;DHT22;2630;52.036;8.514;2023-02-03T04:53:33;8.30;99.90
5222;DHT22;2630;52.036;8.514;2023-02-03T04:55:59;8.30;99.90
5222;DHT22;2630;52.036;8.514;2023-02-03T04:58:25;8.30;99.90
5222;DHT22;2630;52.036;8.514;2023-02-03T05:00:52;8.40;99.90
5222;DHT22;2630;52.036;8.514;2023-02-03T05:03:18;8.40;99.90
5222;DHT22;2630;52.036;8.514;2023-02-03T05:05:44;8.40;99.90
5222;DHT22;2630;52.036;8.514;2023-02-03T05:08:09;8.30;99.90
5222;DHT22;2630;52.036;8.514;2023-02-03T05:10:35;8.40;99.90
5222;DHT22;2630;52.036;8.514;2023-02-03T05:13:00;8.40;99.90
5222;DHT22;2630;52.036;8.514;2023-02-03T05:15:26;8.40;99.90
5222;DHT22;2630;52.036;8.514;2023-02-03T05:17:54;8.30;99.90
5222;DHT22;2630;52.036;8.514;2023-02-03T05:20:20;8.40;99.90
5222;DHT22;2630;52.036;8.514;2023-02-03T05:22:45;8.40;99.90
5222;DHT22;2630;52.036;8.514;2023-02-03T05:25:11;8.40;99.90
5222;DHT22;2630;52.036;8.514;2023-02-03T05:27:37;8.40;99.90
5222;DHT22;2630;52.036;8.514;2023-02-03T05:32:30;8.40;99.90
5222;DHT22;2630;52.036;8.514;2023-02-03T05:34:55;8.40;99.90
5222;DHT22;2630;52.036;8.514;2023-02-03T05:39:47;8.40;99.90
5222;DHT22;2630;52.036;8.514;2023-02-03T05:44:38;8.40;99.90
5222;DHT22;2630;52.036;8.514;2023-02-03T05:49:30;8.40;99.90
5222;DHT22;2630;52.036;8.514;2023-02-03T05:51:55;8.40;99.90
5222;DHT22;2630;52.036;8.514;2023-02-03T05:56:47;8.40;99.90
5222;DHT22;2630;52.036;8.514;2023-02-03T05:59:13;8.30;99.90
5222;DHT22;2630;52.036;8.514;2023-02-03T06:04:05;8.30;99.90
5222;DHT22;2630;52.036;8.514;2023-02-03T06:06:31;8.30;99.90
5222;DHT22;2630;52.036;8.514;2023-02-03T06:11:29;8.20;99.90
5222;DHT22;2630;52.036;8.514;2023-02-03T06:13:56;8.20;99.90
5222;DHT22;2630;52.036;8.514;2023-02-03T06:16:23;8.20;99.90
5222;DHT22;2630;52.036;8.514;2023-02-03T06:18:50;8.10;99.90
5222;DHT22;2630;52.036;8.514;2023-02-03T06:21:16;8.00;99.90
5222;DHT22;2630;52.036;8.514;2023-02-03T06:23:42;8.00;99.90
5222;DHT22;2630;52.036;8.514;2023-02-03T06:26:08;7.90;99.90
5222;DHT22;2630;52.036;8.514;2023-02-03T06:28:33;7.90;99.90
5222;DHT22;2630;52.036;8.514;2023-02-03T06:30:59;7.90;99.90
5222;DHT22;2630;52.036;8.514;2023-02-03T06:33:25;7.80;99.90
5222;DHT22;2630;52.036;8.514;2023-02-03T06:35:50;7.80;99.90
5222;DHT22;2630;52.036;8.514;2023-02-03T06:38:16;7.80;99.90
5222;DHT22;2630;52.036;8.514;2023-02-03T06:40:41;7.80;99.90
5222;DHT22;2630;52.036;8.514;2023-02-03T06:43:07;7.80;99.90
5222;DHT22;2630;52.036;8.514;2023-02-03T06:45:32;7.80;99.90
5222;DHT22;2630;52.036;8.514;2023-02-03T06:50:24;7.80;99.90
5222;DHT22;2630;52.036;8.514;2023-02-03T06:52:50;7.80;99.90
5222;DHT22;2630;52.036;8.514;2023-02-03T06:55:15;7.70;99.90
5222;DHT22;2630;52.036;8.514;2023-02-03T06:57:45;7.80;99.90
5222;DHT22;2630;52.036;8.514;2023-02-03T07:00:12;7.70;99.90
5222;DHT22;2630;52.036;8.514;2023-02-03T07:07:31;7.70;99.90
5222;DHT22;2630;52.036;8.514;2023-02-03T07:12:24;7.80;99.90
5222;DHT22;2630;52.036;8.514;2023-02-03T07:14:50;7.70;99.90
5222;DHT22;2630;52.036;8.514;2023-02-03T07:17:15;7.80;99.90
5222;DHT22;2630;52.036;8.514;2023-02-03T07:19:41;7.80;99.90
5222;DHT22;2630;52.036;8.514;2023-02-03T07:22:09;7.80;99.90
5222;DHT22;2630;52.036;8.514;2023-02-03T07:24:35;7.80;99.90
5222;DHT22;2630;52.036;8.514;2023-02-03T07:29:27;7.80;99.90
5222;DHT22;2630;52.036;8.514;2023-02-03T07:31:53;7.80;99.90
5222;DHT22;2630;52.036;8.514;2023-02-03T07:34:18;7.80;99.90
5222;DHT22;2630;52.036;8.514;2023-02-03T07:36:44;7.90;99.90
5222;DHT22;2630;52.036;8.514;2023-02-03T07:39:10;7.80;99.90
5222;DHT22;2630;52.036;8.514;2023-02-03T07:41:35;7.80;99.90
5222;DHT22;2630;52.036;8.514;2023-02-03T07:44:01;7.80;99.90
5222;DHT22;2630;52.036;8.514;2023-02-03T07:46:27;7.80;99.90
5222;DHT22;2630;52.036;8.514;2023-02-03T07:48:52;7.90;99.90
5222;DHT22;2630;52.036;8.514;2023-02-03T07:51:18;7.90;99.90
5222;DHT22;2630;52.036;8.514;2023-02-03T07:53:44;7.90;99.90
5222;DHT22;2630;52.036;8.514;2023-02-03T07:56:10;7.90;99.90
5222;DHT22;2630;52.036;8.514;2023-02-03T07:58:36;8.00;99.90
5222;DHT22;2630;52.036;8.514;2023-02-03T08:01:12;8.00;99.90
5222;DHT22;2630;52.036;8.514;2023-02-03T08:03:38;8.00;99.90
5222;DHT22;2630;52.036;8.514;2023-02-03T08:06:04;7.90;99.90
5222;DHT22;2630;52.036;8.514;2023-02-03T08:10:56;8.00;99.90
5222;DHT22;2630;52.036;8.514;2023-02-03T08:13:22;8.00;99.90
5222;DHT22;2630;52.036;8.514;2023-02-03T08:15:47;8.00;99.90
5222;DHT22;2630;52.036;8.514;2023-02-03T08:18:13;7.90;99.90
5222;DHT22;2630;52.036;8.514;2023-02-03T08:20:39;8.00;99.90
5222;DHT22;2630;52.036;8.514;2023-02-03T08:23:05;7.90;99.90
5222;DHT22;2630;52.036;8.514;2023-02-03T08:25:31;8.00;99.90
5222;DHT22;2630;52.036;8.514;2023-02-03T08:30:23;8.00;99.90
5222;DHT22;2630;52.036;8.514;2023-02-03T08:32:49;8.00;99.90
5222;DHT22;2630;52.036;8.514;2023-02-03T08:35:15;8.00;99.90
5222;DHT22;2630;52.036;8.514;2023-02-03T08:37:41;8.00;99.90
5222;DHT22;2630;52.036;8.514;2023-02-03T08:42:33;8.00;99.90
5222;DHT22;2630;52.036;8.514;2023-02-03T08:44:59;8.00;99.90
5222;DHT22;2630;52.036;8.514;2023-02-03T08:47:24;8.00;99.90
5222;DHT22;2630;52.036;8.514;2023-02-03T08:49:50;8.00;99.90
5222;DHT22;2630;52.036;8.514;2023-02-03T08:52:16;8.00;99.90
5222;DHT22;2630;52.036;8.514;2023-02-03T08:57:07;8.10;99.90
5222;DHT22;2630;52.036;8.514;2023-02-03T08:59:34;8.10;99.90
5222;DHT22;2630;52.036;8.514;2023-02-03T09:04:28;8.10;99.90
5222;DHT22;2630;52.036;8.514;2023-02-03T09:06:54;8.20;99.90
5222;DHT22;2630;52.036;8.514;2023-02-03T09:09:20;8.20;99.90
5222;DHT22;2630;52.036;8.514;2023-02-03T09:11:46;8.20;99.90
5222;DHT22;2630;52.036;8.514;2023-02-03T09:14:11;8.20;99.90
5222;DHT22;2630;52.036;8.514;2023-02-03T09:16:38;8.20;99.90
5222;DHT22;2630;52.036;8.514;2023-02-03T09:19:03;8.20;99.90
5222;DHT22;2630;52.036;8.514;2023-02-03T09:21:29;8.20;99.90
5222;DHT22;2630;52.036;8.514;2023-02-03T09:26:20;8.20;99.90
5222;DHT22;2630;52.036;8.514;2023-02-03T09:28:46;8.20;99.90
5222;DHT22;2630;52.036;8.514;2023-02-03T09:31:14;8.20;99.90
5222;DHT22;2630;52.036;8.514;2023-02-03T09:33:44;8.20;99.90
5222;DHT22;2630;52.036;8.514;2023-02-03T09:36:10;8.20;99.90
5222;DHT22;2630;52.036;8.514;2023-02-03T09:38:36;8.20;99.90
5222;DHT22;2630;52.036;8.514;2023-02-03T09:48:51;8.30;99.90
5222;DHT22;2630;52.036;8.514;2023-02-03T09:51:24;8.30;99.90
5222;DHT22;2630;52.036;8.514;2023-02-03T09:54:00;8.30;99.90
5222;DHT22;2630;52.036;8.514;2023-02-03T09:56:33;8.40;99.90
5222;DHT22;2630;52.036;8.514;2023-02-03T09:59:00;8.40;99.90
5222;DHT22;2630;52.036;8.514;2023-02-03T10:01:39;8.40;99.90
5222;DHT22;2630;52.036;8.514;2023-02-03T10:04:36;8.40;99.90
5222;DHT22;2630;52.036;8.514;2023-02-03T10:18:19;8.40;99.90
5222;DHT22;2630;52.036;8.514;2023-02-03T10:20:48;8.40;99.90
5222;DHT22;2630;52.036;8.514;2023-02-03T10:23:26;8.30;99.90
5222;DHT22;2630;52.036;8.514;2023-02-03T10:25:54;8.40;99.90
5222;DHT22;2630;52.036;8.514;2023-02-03T10:28:30;8.40;99.90
5222;DHT22;2630;52.036;8.514;2023-02-03T10:31:01;8.30;99.90
5222;DHT22;2630;52.036;8.514;2023-02-03T10:41:23;8.40;99.90
5222;DHT22;2630;52.036;8.514;2023-02-03T10:43:50;8.40;99.90
5222;DHT22;2630;52.036;8.514;2023-02-03T10:46:31;8.40;99.90
5222;DHT22;2630;52.036;8.514;2023-02-03T10:48:57;8.40;99.90
5222;DHT22;2630;52.036;8.514;2023-02-03T10:51:27;8.40;99.90
5222;DHT22;2630;52.036;8.514;2023-02-03T10:53:56;8.40;99.90
5222;DHT22;2630;52.036;8.514;2023-02-03T10:56:29;8.40;99.90
5222;DHT22;2630;52.036;8.514;2023-02-03T10:58:58;8.50;99.90
5222;DHT22;2630;52.036;8.514;2023-02-03T11:01:42;8.50;99.90
5222;DHT22;2630;52.036;8.514;2023-02-03T11:04:31;8.50;99.90
5222;DHT22;2630;52.036;8.514;2023-02-03T11:07:00;8.50;99.90
5222;DHT22;2630;52.036;8.514;2023-02-03T11:09:37;8.60;99.90
5222;DHT22;2630;52.036;8.514;2023-02-03T11:12:13;8.60;99.90
5222;DHT22;2630;52.036;8.514;2023-02-03T11:14:42;8.60;99.90
5222;DHT22;2630;52.036;8.514;2023-02-03T11:19:44;8.50;99.90
5222;DHT22;2630;52.036;8.514;2023-02-03T11:27:08;8.50;99.90
5222;DHT22;2630;52.036;8.514;2023-02-03T11:29:36;8.40;99.90
5222;DHT22;2630;52.036;8.514;2023-02-03T11:34:34;8.40;99.90
5222;DHT22;2630;52.036;8.514;2023-02-03T11:37:36;8.50;99.90
5222;DHT22;2630;52.036;8.514;2023-02-03T11:42:42;8.60;99.90
5222;DHT22;2630;52.036;8.514;2023-02-03T11:45:16;8.60;99.90
5222;DHT22;2630;52.036;8.514;2023-02-03T11:58:35;8.60;99.90
5222;DHT22;2630;52.036;8.514;2023-02-03T12:04:01;8.60;99.90
5222;DHT22;2630;52.036;8.514;2023-02-03T12:09:51;8.70;99.90
5222;DHT22;2630;52.036;8.514;2023-02-03T12:20:33;8.70;99.90
5222;DHT22;2630;52.036;8.514;2023-02-03T12:23:44;8.90;99.90
5222;DHT22;2630;52.036;8.514;2023-02-03T12:26:20;9.00;99.90
5222;DHT22;2630;52.036;8.514;2023-02-03T12:34:20;9.30;99.90
5222;DHT22;2630;52.036;8.514;2023-02-03T12:37:03;9.30;99.90
5222;DHT22;2630;52.036;8.514;2023-02-03T12:44:49;9.40;99.90
5222;DHT22;2630;52.036;8.514;2023-02-03T12:50:20;9.50;99.90
5222;DHT22;2630;52.036;8.514;2023-02-03T12:53:32;9.50;99.90
5222;DHT22;2630;52.036;8.514;2023-02-03T12:56:10;9.40;99.90
5222;DHT22;2630;52.036;8.514;2023-02-03T12:58:40;9.50;99.90
5222;DHT22;2630;52.036;8.514;2023-02-03T13:09:26;9.80;99.90
5222;DHT22;2630;52.036;8.514;2023-02-03T13:12:06;9.80;99.90
5222;DHT22;2630;52.036;8.514;2023-02-03T13:17:19;9.80;99.90
5222;DHT22;2630;52.036;8.514;2023-02-03T13:20:12;9.80;99.90
5222;DHT22;2630;52.036;8.514;2023-02-03T13:22:39;9.80;99.90
5222;DHT22;2630;52.036;8.514;2023-02-03T13:27:38;9.70;99.90
5222;DHT22;2630;52.036;8.514;2023-02-03T13:41:46;9.60;99.90
5222;DHT22;2630;52.036;8.514;2023-02-03T13:44:18;9.50;99.90
5222;DHT22;2630;52.036;8.514;2023-02-03T13:46:48;9.50;99.90
5222;DHT22;2630;52.036;8.514;2023-02-03T13:49:33;9.50;99.90
5222;DHT22;2630;52.036;8.514;2023-02-03T13:51:59;9.40;99.90
5222;DHT22;2630;52.036;8.514;2023-02-03T13:54:37;9.40;99.90
5222;DHT22;2630;52.036;8.514;2023-02-03T13:57:20;9.30;99.90
5222;DHT22;2630;52.036;8.514;2023-02-03T13:59:46;9.30;99.90
5222;DHT22;2630;52.036;8.514;2023-02-03T14:07:35;9.20;99.90
5222;DHT22;2630;52.036;8.514;2023-02-03T14:28:02;8.80;99.90
5222;DHT22;2630;52.036;8.514;2023-02-03T14:30:29;8.80;99.90
5222;DHT22;2630;52.036;8.514;2023-02-03T14:32:57;8.80;99.90
5222;DHT22;2630;52.036;8.514;2023-02-03T14:35:36;8.70;99.90
5222;DHT22;2630;52.036;8.514;2023-02-03T14:38:07;8.70;99.90
5222;DHT22;2630;52.036;8.514;2023-02-03T14:40:55;8.70;99.90
5222;DHT22;2630;52.036;8.514;2023-02-03T14:43:33;8.70;99.90
5222;DHT22;2630;52.036;8.514;2023-02-03T14:46:20;8.70;99.90
5222;DHT22;2630;52.036;8.514;2023-02-03T14:51:57;8.70;99.90
5222;DHT22;2630;52.036;8.514;2023-02-03T14:57:25;8.60;99.90
5222;DHT22;2630;52.036;8.514;2023-02-03T15:02:28;8.60;99.90
5222;DHT22;2630;52.036;8.514;2023-02-03T15:07:49;8.60;99.90
5222;DHT22;2630;52.036;8.514;2023-02-03T15:10:26;8.60;99.90
5222;DHT22;2630;52.036;8.514;2023-02-03T15:15:22;8.60;99.90
5222;DHT22;2630;52.036;8.514;2023-02-03T15:17:53;8.60;99.90
5222;DHT22;2630;52.036;8.514;2023-02-03T15:22:54;8.50;99.90
5222;DHT22;2630;52.036;8.514;2023-02-03T15:25:21;8.50;99.90
5222;DHT22;2630;52.036;8.514;2023-02-03T15:27:49;8.40;99.90
5222;DHT22;2630;52.036;8.514;2023-02-03T15:30:17;8.40;99.90
5222;DHT22;2630;52.036;8.514;2023-02-03T15:32:52;8.40;99.90
5222;DHT22;2630;52.036;8.514;2023-02-03T15:35:20;8.30;99.90
5222;DHT22;2630;52.036;8.514;2023-02-03T15:38:01;8.30;99.90
5222;DHT22;2630;52.036;8.514;2023-02-03T15:40:35;8.30;99.90
5222;DHT22;2630;52.036;8.514;2023-02-03T15:43:05;8.10;99.90
5222;DHT22;2630;52.036;8.514;2023-02-03T15:48:10;8.00;99.90
5222;DHT22;2630;52.036;8.514;2023-02-03T15:50:44;8.00;99.90
5222;DHT22;2630;52.036;8.514;2023-02-03T15:55:46;7.90;99.90
5222;DHT22;2630;52.036;8.514;2023-02-03T15:58:19;7.90;99.90
5222;DHT22;2630;52.036;8.514;2023-02-03T16:00:55;7.90;99.90
5222;DHT22;2630;52.036;8.514;2023-02-03T16:05:53;7.90;99.90
5222;DHT22;2630;52.036;8.514;2023-02-03T16:08:42;7.80;99.90
5222;DHT22;2630;52.036;8.514;2023-02-03T16:11:33;7.70;99.90
5222;DHT22;2630;52.036;8.514;2023-02-03T16:14:01;7.80;99.90
5222;DHT22;2630;52.036;8.514;2023-02-03T16:21:26;7.70;99.90
5222;DHT22;2630;52.036;8.514;2023-02-03T16:23:52;7.70;99.90
5222;DHT22;2630;52.036;8.514;2023-02-03T16:26:19;7.70;99.90
5222;DHT22;2630;52.036;8.514;2023-02-03T16:29:11;7.70;99.90
5222;DHT22;2630;52.036;8.514;2023-02-03T16:31:56;7.70;99.90
5222;DHT22;2630;52.036;8.514;2023-02-03T16:34:40;7.70;99.90
5222;DHT22;2630;52.036;8.514;2023-02-03T16:37:27;7.60;99.90
5222;DHT22;2630;52.036;8.514;2023-02-03T16:40:16;7.60;99.90
5222;DHT22;2630;52.036;8.514;2023-02-03T16:45:46;7.60;99.90
5222;DHT22;2630;52.036;8.514;2023-02-03T16:48:34;7.60;99.90
5222;DHT22;2630;52.036;8.514;2023-02-03T16:51:18;7.60;99.90
5222;DHT22;2630;52.036;8.514;2023-02-03T16:53:45;7.60;99.90
5222;DHT22;2630;52.036;8.514;2023-02-03T16:56:12;7.60;99.90
5222;DHT22;2630;52.036;8.514;2023-02-03T16:58:38;7.60;99.90
5222;DHT22;2630;52.036;8.514;2023-02-03T17:01:05;7.60;99.90
5222;DHT22;2630;52.036;8.514;2023-02-03T17:03:33;7.60;99.90
5222;DHT22;2630;52.036;8.514;2023-02-03T17:06:05;7.60;99.90
5222;DHT22;2630;52.036;8.514;2023-02-03T17:08:32;7.60;99.90
5222;DHT22;2630;52.036;8.514;2023-02-03T17:11:03;7.60;99.90
5222;DHT22;2630;52.036;8.514;2023-02-03T17:13:29;7.50;99.90
5222;DHT22;2630;52.036;8.514;2023-02-03T17:15:55;7.50;99.90
5222;DHT22;2630;52.036;8.514;2023-02-03T17:18:21;7.50;99.90
5222;DHT22;2630;52.036;8.514;2023-02-03T17:20:47;7.50;99.90
5222;DHT22;2630;52.036;8.514;2023-02-03T17:23:13;7.50;99.90
5222;DHT22;2630;52.036;8.514;2023-02-03T17:25:44;7.50;99.90
5222;DHT22;2630;52.036;8.514;2023-02-03T17:28:10;7.40;99.90
5222;DHT22;2630;52.036;8.514;2023-02-03T17:30:37;7.50;99.90
5222;DHT22;2630;52.036;8.514;2023-02-03T17:33:05;7.40;99.90
5222;DHT22;2630;52.036;8.514;2023-02-03T17:35:41;7.40;99.90
5222;DHT22;2630;52.036;8.514;2023-02-03T17:38:07;7.40;99.90
5222;DHT22;2630;52.036;8.514;2023-02-03T17:42:59;7.40;99.90
5222;DHT22;2630;52.036;8.514;2023-02-03T17:45:24;7.30;99.90
5222;DHT22;2630;52.036;8.514;2023-02-03T17:47:50;7.40;99.90
5222;DHT22;2630;52.036;8.514;2023-02-03T17:50:16;7.30;99.90
5222;DHT22;2630;52.036;8.514;2023-02-03T17:52:44;7.40;99.90
5222;DHT22;2630;52.036;8.514;2023-02-03T17:55:10;7.30;99.90
5222;DHT22;2630;52.036;8.514;2023-02-03T17:57:36;7.30;99.90
5222;DHT22;2630;52.036;8.514;2023-02-03T18:00:03;7.30;99.90
5222;DHT22;2630;52.036;8.514;2023-02-03T18:02:29;7.30;99.90
5222;DHT22;2630;52.036;8.514;2023-02-03T18:04:55;7.30;99.90
5222;DHT22;2630;52.036;8.514;2023-02-03T18:07:20;7.20;99.90
5222;DHT22;2630;52.036;8.514;2023-02-03T18:09:46;7.20;99.90
5222;DHT22;2630;52.036;8.514;2023-02-03T18:12:11;7.20;99.90
5222;DHT22;2630;52.036;8.514;2023-02-03T18:14:37;7.20;99.90
5222;DHT22;2630;52.036;8.514;2023-02-03T18:17:03;7.10;99.90
5222;DHT22;2630;52.036;8.514;2023-02-03T18:19:28;7.10;99.90
5222;DHT22;2630;52.036;8.514;2023-02-03T18:21:54;7.10;99.90
5222;DHT22;2630;52.036;8.514;2023-02-03T18:24:20;7.10;99.90
5222;DHT22;2630;52.036;8.514;2023-02-03T18:26:52;7.10;99.90
5222;DHT22;2630;52.036;8.514;2023-02-03T18:29:18;7.10;99.90
5222;DHT22;2630;52.036;8.514;2023-02-03T18:31:44;7.20;99.90
5222;DHT22;2630;52.036;8.514;2023-02-03T18:36:36;7.20;99.90
5222;DHT22;2630;52.036;8.514;2023-02-03T18:39:02;7.20;99.90
5222;DHT22;2630;52.036;8.514;2023-02-03T18:43:53;7.20;99.90
5222;DHT22;2630;52.036;8.514;2023-02-03T18:46:29;7.30;99.90
5222;DHT22;2630;52.036;8.514;2023-02-03T18:48:56;7.30;99.90
5222;DHT22;2630;52.036;8.514;2023-02-03T18:51:22;7.40;99.90
5222;DHT22;2630;52.036;8.514;2023-02-03T18:53:49;7.40;99.90
5222;DHT22;2630;52.036;8.514;2023-02-03T18:56:17;7.40;99.90
5222;DHT22;2630;52.036;8.514;2023-02-03T18:58:43;7.30;99.90
5222;DHT22;2630;52.036;8.514;2023-02-03T19:01:17;7.30;99.90
5222;DHT22;2630;52.036;8.514;2023-02-03T19:03:44;7.30;99.90
5222;DHT22;2630;52.036;8.514;2023-02-03T19:06:09;7.20;99.90
5222;DHT22;2630;52.036;8.514;2023-02-03T19:08:36;7.30;99.90
5222;DHT22;2630;52.036;8.514;2023-02-03T19:11:02;7.20;99.90
5222;DHT22;2630;52.036;8.514;2023-02-03T19:13:27;7.30;99.90
5222;DHT22;2630;52.036;8.514;2023-02-03T19:15:53;7.30;99.90
5222;DHT22;2630;52.036;8.514;2023-02-03T19:18:18;7.30;99.90
5222;DHT22;2630;52.036;8.514;2023-02-03T19:20:44;7.30;99.90
5222;DHT22;2630;52.036;8.514;2023-02-03T19:23:13;7.30;99.90
5222;DHT22;2630;52.036;8.514;2023-02-03T19:25:39;7.30;99.90
5222;DHT22;2630;52.036;8.514;2023-02-03T19:28:05;7.30;99.90
5222;DHT22;2630;52.036;8.514;2023-02-03T19:30:32;7.40;99.90
5222;DHT22;2630;52.036;8.514;2023-02-03T19:32:57;7.30;99.90
5222;DHT22;2630;52.036;8.514;2023-02-03T19:35:23;7.30;99.90
5222;DHT22;2630;52.036;8.514;2023-02-03T19:37:49;7.30;99.90
5222;DHT22;2630;52.036;8.514;2023-02-03T19:40:15;7.30;99.90
5222;DHT22;2630;52.036;8.514;2023-02-03T19:42:41;7.30;99.90
5222;DHT22;2630;52.036;8.514;2023-02-03T19:45:06;7.20;99.90
5222;DHT22;2630;52.036;8.514;2023-02-03T19:47:33;7.20;99.90
5222;DHT22;2630;52.036;8.514;2023-02-03T19:49:58;7.10;99.90
5222;DHT22;2630;52.036;8.514;2023-02-03T19:52:24;7.10;99.90
5222;DHT22;2630;52.036;8.514;2023-02-03T19:54:50;7.10;99.90
5222;DHT22;2630;52.036;8.514;2023-02-03T19:57:18;7.10;99.90
5222;DHT22;2630;52.036;8.514;2023-02-03T19:59:43;7.00;99.90
5222;DHT22;2630;52.036;8.514;2023-02-03T20:02:09;7.00;99.90
5222;DHT22;2630;52.036;8.514;2023-02-03T20:04:35;6.90;99.90
5222;DHT22;2630;52.036;8.514;2023-02-03T20:07:01;7.00;99.90
5222;DHT22;2630;52.036;8.514;2023-02-03T20:09:26;7.00;99.90
5222;DHT22;2630;52.036;8.514;2023-02-03T20:11:52;7.00;99.90
5222;DHT22;2630;52.036;8.514;2023-02-03T20:14:17;6.90;99.90
5222;DHT22;2630;52.036;8.514;2023-02-03T20:16:43;6.90;99.90
5222;DHT22;2630;52.036;8.514;2023-02-03T20:19:09;6.90;99.90
5222;DHT22;2630;52.036;8.514;2023-02-03T20:21:35;6.90;99.90
5222;DHT22;2630;52.036;8.514;2023-02-03T20:24:01;6.90;99.90
5222;DHT22;2630;52.036;8.514;2023-02-03T20:26:26;7.00;99.90
5222;DHT22;2630;52.036;8.514;2023-02-03T20:28:52;7.00;99.90
5222;DHT22;2630;52.036;8.514;2023-02-03T20:31:17;6.90;99.90
5222;DHT22;2630;52.036;8.514;2023-02-03T20:33:43;6.90;99.90
5222;DHT22;2630;52.036;8.514;2023-02-03T20:36:09;6.90;99.90
5222;DHT22;2630;52.036;8.514;2023-02-03T20:38:34;6.90;99.90
5222;DHT22;2630;52.036;8.514;2023-02-03T20:41:00;6.90;99.90
5222;DHT22;2630;52.036;8.514;2023-02-03T20:43:26;7.00;99.90
5222;DHT22;2630;52.036;8.514;2023-02-03T20:45:52;7.00;99.90
5222;DHT22;2630;52.036;8.514;2023-02-03T20:48:19;6.70;99.90
5222;DHT22;2630;52.036;8.514;2023-02-03T20:50:47;7.00;99.90
5222;DHT22;2630;52.036;8.514;2023-02-03T20:53:24;7.00;99.90
5222;DHT22;2630;52.036;8.514;2023-02-03T20:55:51;7.00;99.90
5222;DHT22;2630;52.036;8.514;2023-02-03T20:58:28;6.90;99.90
5222;DHT22;2630;52.036;8.514;2023-02-03T21:00:55;6.80;99.90
5222;DHT22;2630;52.036;8.514;2023-02-03T21:03:24;6.70;99.90
5222;DHT22;2630;52.036;8.514;2023-02-03T21:06:16;6.50;99.90
5222;DHT22;2630;52.036;8.514;2023-02-03T21:08:43;6.50;99.90
5222;DHT22;2630;52.036;8.514;2023-02-03T21:11:12;6.40;99.90
5222;DHT22;2630;52.036;8.514;2023-02-03T21:13:38;6.40;99.90
5222;DHT22;2630;52.036;8.514;2023-02-03T21:16:18;6.40;99.90
5222;DHT22;2630;52.036;8.514;2023-02-03T21:18:50;6.40;99.90
5222;DHT22;2630;52.036;8.514;2023-02-03T21:21:28;6.40;99.90
5222;DHT22;2630;52.036;8.514;2023-02-03T21:23:56;6.40;99.90
5222;DHT22;2630;52.036;8.514;2023-02-03T21:26:27;6.50;99.90
5222;DHT22;2630;52.036;8.514;2023-02-03T21:31:32;6.50;99.90